Time;durP1;ratioP1;P1;durP2;ratioP2;P2;SDS_P1;SDS_P2;PMS_P1;PMS_P2;Temp;Humidity;BMP_temperature;BMP_pressure;BME280_temperature;BME280_humidity;BME280_pressure;Samples;Min_cycle;Max_cycle;Signal;HPM_P1;HPM_P2
2022/07/20 00:00:21;;;;;;;4.22;2.20;;;25.20;99.90;;;;;;5037289;28;20088;-83
2022/07/20 00:02:48;;;;;;;4.55;2.15;;;25.30;99.90;;;;;;5040210;28;20087;-83
2022/07/20 00:05:14;;;;;;;9.90;2.08;;;25.20;99.90;;;;;;5043563;28;20070;-84
2022/07/20 00:07:41;;;;;;;6.72;2.60;;;25.20;99.90;;;;;;5045081;28;20050;-84
2022/07/20 00:12:54;;;;;;;7.55;2.08;;;25.10;99.90;;;;;;5037831;28;20050;-82
2022/07/20 00:15:21;;;;;;;4.28;2.05;;;25.10;99.90;;;;;;5037817;28;20049;-82
2022/07/20 00:17:48;;;;;;;3.90;2.00;;;25.20;99.90;;;;;;5037872;28;20050;-84
2022/07/20 00:20:14;;;;;;;4.57;2.10;;;25.00;99.90;;;;;;5038822;28;20389;-83
2022/07/20 00:22:41;;;;;;;4.65;2.38;;;25.10;99.90;;;;;;5036222;28;20076;-82
2022/07/20 00:25:08;;;;;;;2.50;1.80;;;25.00;99.90;;;;;;5045836;28;20109;-83
2022/07/20 00:27:35;;;;;;;6.45;2.75;;;25.00;99.90;;;;;;5034931;28;20054;-83
2022/07/20 00:30:03;;;;;;;3.95;2.05;;;25.00;99.90;;;;;;5045136;28;20041;-82
2022/07/20 00:32:29;;;;;;;4.28;2.08;;;25.00;99.90;;;;;;5039359;28;20045;-83
2022/07/20 00:34:56;;;;;;;6.53;2.47;;;25.00;99.90;;;;;;5039732;28;20052;-83
2022/07/20 00:37:23;;;;;;;7.03;2.42;;;24.90;99.90;;;;;;5045862;28;20057;-82
2022/07/20 00:39:50;;;;;;;4.18;2.05;;;24.90;99.90;;;;;;5035004;28;20508;-82
2022/07/20 00:42:16;;;;;;;6.18;2.15;;;24.80;99.90;;;;;;5038513;28;20045;-82
2022/07/20 00:44:43;;;;;;;4.93;2.53;;;24.90;99.90;;;;;;5038087;28;20069;-83
2022/07/20 00:47:10;;;;;;;7.28;2.58;;;24.80;99.90;;;;;;5038860;28;20072;-83
2022/07/20 00:49:36;;;;;;;4.90;2.50;;;24.80;99.90;;;;;;5041236;28;20073;-83
2022/07/20 00:52:04;;;;;;;4.65;2.35;;;24.80;99.90;;;;;;5041260;28;20045;-84
2022/07/20 00:54:31;;;;;;;5.13;2.13;;;24.70;99.90;;;;;;5042461;28;20050;-83
2022/07/20 00:56:58;;;;;;;4.82;2.20;;;24.70;99.90;;;;;;5049576;28;20060;-84
2022/07/20 00:59:25;;;;;;;5.68;2.20;;;24.60;99.90;;;;;;5042383;28;20050;-83
2022/07/20 01:01:52;;;;;;;6.93;2.20;;;24.60;99.90;;;;;;5042239;28;20084;-83
2022/07/20 01:04:19;;;;;;;5.63;2.45;;;24.50;99.90;;;;;;5041838;28;20052;-83
2022/07/20 01:06:46;;;;;;;8.55;2.75;;;24.50;99.90;;;;;;5044794;28;20053;-83
2022/07/20 01:09:13;;;;;;;7.43;2.97;;;24.50;99.90;;;;;;5041970;28;20096;-83
2022/07/20 01:11:39;;;;;;;8.23;2.40;;;24.60;99.90;;;;;;5046966;28;20598;-84
2022/07/20 01:14:07;;;;;;;6.97;2.70;;;24.60;99.90;;;;;;5043193;28;20064;-83
2022/07/20 01:16:35;;;;;;;5.82;2.17;;;24.50;99.90;;;;;;5042520;28;20077;-83
2022/07/20 01:19:02;;;;;;;5.75;2.47;;;24.50;99.90;;;;;;5043069;28;20073;-84
2022/07/20 01:21:29;;;;;;;10.60;2.97;;;24.50;99.90;;;;;;5043479;28;20056;-82
2022/07/20 01:23:56;;;;;;;4.80;2.80;;;24.50;99.90;;;;;;5039989;28;20053;-83
2022/07/20 01:26:23;;;;;;;8.55;2.30;;;24.40;99.90;;;;;;5042220;28;20041;-83
2022/07/20 01:28:50;;;;;;;6.75;2.60;;;24.40;99.90;;;;;;5039890;28;20053;-83
2022/07/20 01:31:17;;;;;;;5.13;2.45;;;24.40;99.90;;;;;;5043953;28;20084;-84
2022/07/20 01:33:44;;;;;;;6.15;2.83;;;24.30;99.90;;;;;;5038320;28;20084;-83
2022/07/20 01:36:11;;;;;;;7.13;2.15;;;24.30;99.90;;;;;;5041213;28;20050;-84
2022/07/20 01:38:38;;;;;;;6.68;2.75;;;24.30;99.90;;;;;;5041484;28;20041;-84
2022/07/20 01:41:04;;;;;;;8.90;3.17;;;24.30;99.90;;;;;;5035562;28;20065;-84
2022/07/20 01:43:31;;;;;;;4.93;2.30;;;24.20;99.90;;;;;;5041426;28;20046;-82
2022/07/20 01:45:58;;;;;;;6.78;2.60;;;24.30;99.90;;;;;;5039808;28;20049;-83
2022/07/20 01:48:25;;;;;;;5.22;2.42;;;24.30;99.90;;;;;;5047563;28;20049;-82
2022/07/20 01:50:52;;;;;;;5.85;2.40;;;24.30;99.90;;;;;;5038862;28;20073;-83
2022/07/20 01:53:18;;;;;;;4.32;2.35;;;24.40;99.90;;;;;;5047587;28;20053;-84
2022/07/20 01:55:45;;;;;;;9.63;2.20;;;24.40;99.90;;;;;;5040093;28;20053;-82
2022/07/20 01:58:12;;;;;;;10.15;2.53;;;24.20;99.90;;;;;;5037942;28;20416;-83
2022/07/20 02:00:39;;;;;;;8.88;3.00;;;24.30;99.90;;;;;;5035853;28;20049;-83
2022/07/20 02:03:06;;;;;;;5.13;2.80;;;24.20;99.90;;;;;;5039896;28;20084;-82
2022/07/20 02:05:32;;;;;;;10.15;2.33;;;24.20;99.90;;;;;;5036897;28;20074;-83
2022/07/20 02:07:59;;;;;;;4.72;2.40;;;24.20;99.90;;;;;;5039321;28;20450;-83
2022/07/20 02:10:26;;;;;;;5.63;2.20;;;24.10;99.90;;;;;;5034068;28;20041;-83
2022/07/20 02:12:53;;;;;;;3.58;2.10;;;24.10;99.90;;;;;;5040687;28;20083;-82
2022/07/20 02:18:09;;;;;;;4.68;2.75;;;24.10;99.90;;;;;;5040688;28;20070;-83
2022/07/20 02:20:37;;;;;;;4.20;2.40;;;24.10;99.90;;;;;;5041471;28;20046;-82
2022/07/20 02:23:05;;;;;;;9.20;2.67;;;24.10;99.90;;;;;;5036409;28;20046;-82
2022/07/20 02:25:33;;;;;;;3.65;2.47;;;24.10;99.90;;;;;;5046305;28;20041;-83
2022/07/20 02:28:03;;;;;;;4.20;2.08;;;24.10;99.90;;;;;;5035785;28;20042;-83
2022/07/20 02:30:30;;;;;;;6.18;2.17;;;24.00;99.90;;;;;;5040518;28;20060;-83
2022/07/20 02:32:57;;;;;;;10.18;2.63;;;24.00;99.90;;;;;;5039173;28;20069;-84
2022/07/20 02:35:23;;;;;;;4.95;2.25;;;24.00;99.90;;;;;;5028559;28;20558;-84
2022/07/20 02:37:50;;;;;;;6.10;2.13;;;24.00;99.90;;;;;;5034848;28;20107;-83
2022/07/20 02:40:17;;;;;;;3.83;2.58;;;24.00;99.90;;;;;;5030185;28;20046;-84
2022/07/20 02:42:43;;;;;;;5.82;2.33;;;23.90;99.90;;;;;;5044387;28;20041;-84
2022/07/20 02:45:10;;;;;;;5.53;2.42;;;23.90;99.90;;;;;;5039161;28;20049;-83
2022/07/20 02:47:45;;;;;;;4.22;2.15;;;23.80;99.90;;;;;;5037728;28;20411;-83
2022/07/20 02:50:12;;;;;;;5.03;2.20;;;23.90;99.90;;;;;;5037847;28;20156;-83
2022/07/20 02:52:40;;;;;;;4.45;2.17;;;23.90;99.90;;;;;;5039679;28;20029;-82
2022/07/20 02:55:08;;;;;;;4.78;2.83;;;23.90;99.90;;;;;;5038388;28;20054;-83
2022/07/20 02:57:35;;;;;;;4.15;2.10;;;23.90;99.90;;;;;;5047374;28;20064;-84
2022/07/20 03:00:04;;;;;;;4.60;2.78;;;23.90;99.90;;;;;;5037210;28;20069;-83
2022/07/20 03:02:31;;;;;;;5.00;2.90;;;23.80;99.90;;;;;;5043434;28;20099;-83
2022/07/20 03:04:57;;;;;;;6.55;2.78;;;23.80;99.90;;;;;;5047040;28;20057;-84
2022/07/20 03:07:24;;;;;;;3.70;2.35;;;23.90;99.90;;;;;;5047902;28;20046;-83
2022/07/20 03:09:51;;;;;;;7.00;2.60;;;23.90;99.90;;;;;;5048410;28;20045;-83
2022/07/20 03:12:18;;;;;;;4.53;2.83;;;23.90;99.90;;;;;;5050875;28;20076;-85
2022/07/20 03:14:44;;;;;;;5.00;2.53;;;23.90;99.90;;;;;;5046709;28;20035;-83
2022/07/20 03:17:11;;;;;;;6.25;2.80;;;23.90;99.90;;;;;;5043397;28;20068;-83
2022/07/20 03:19:38;;;;;;;4.60;2.42;;;23.90;99.90;;;;;;5043341;28;20077;-82
2022/07/20 03:22:05;;;;;;;8.80;3.08;;;23.90;99.90;;;;;;5039217;28;20416;-82
2022/07/20 03:24:32;;;;;;;4.75;2.58;;;23.90;99.90;;;;;;5034408;28;20046;-83
2022/07/20 03:26:59;;;;;;;4.30;2.50;;;23.90;99.90;;;;;;5033605;28;20093;-83
2022/07/20 03:29:26;;;;;;;4.63;2.67;;;23.90;99.90;;;;;;5035241;28;20048;-83
2022/07/20 03:31:53;;;;;;;4.43;2.47;;;23.90;99.90;;;;;;5039183;28;20066;-83
2022/07/20 03:34:19;;;;;;;6.95;2.40;;;23.90;99.90;;;;;;5037139;28;20103;-82
2022/07/20 03:36:48;;;;;;;4.03;2.75;;;23.90;99.90;;;;;;5039349;28;20076;-83
2022/07/20 03:39:16;;;;;;;3.63;2.17;;;24.00;99.90;;;;;;5044994;28;20115;-83
2022/07/20 03:41:43;;;;;;;3.67;2.70;;;23.90;99.90;;;;;;5042963;28;20084;-83
2022/07/20 03:44:10;;;;;;;7.50;3.10;;;24.00;99.90;;;;;;5037803;28;20415;-83
2022/07/20 03:46:37;;;;;;;7.25;2.45;;;24.00;99.90;;;;;;5042180;28;20093;-84
2022/07/20 03:49:04;;;;;;;7.43;2.70;;;24.00;99.90;;;;;;5046377;28;20117;-82
2022/07/20 03:51:30;;;;;;;7.22;2.95;;;23.90;99.90;;;;;;5033189;28;20053;-83
2022/07/20 03:53:57;;;;;;;4.63;2.70;;;24.00;99.90;;;;;;5035843;28;20057;-84
2022/07/20 03:56:24;;;;;;;4.78;3.65;;;24.00;99.90;;;;;;5037301;28;20061;-83
2022/07/20 03:58:50;;;;;;;5.95;2.95;;;24.10;99.90;;;;;;5044437;28;20084;-83
2022/07/20 04:01:18;;;;;;;4.75;2.75;;;24.10;99.90;;;;;;5036890;28;20046;-83
2022/07/20 04:03:45;;;;;;;3.28;2.70;;;24.10;99.90;;;;;;5037318;28;20061;-82
2022/07/20 04:06:12;;;;;;;6.82;2.60;;;24.20;99.90;;;;;;5042070;28;20072;-83
2022/07/20 04:08:38;;;;;;;7.25;2.70;;;24.20;99.90;;;;;;5046374;28;20050;-82
2022/07/20 04:11:05;;;;;;;5.18;2.85;;;24.30;99.90;;;;;;5030792;28;20053;-82
2022/07/20 04:13:32;;;;;;;11.00;3.33;;;24.30;99.90;;;;;;5036011;28;20049;-82
2022/07/20 04:15:58;;;;;;;5.03;2.70;;;24.30;99.90;;;;;;5038678;28;20422;-83
2022/07/20 04:18:25;;;;;;;6.00;2.83;;;24.40;99.90;;;;;;5039228;28;20068;-83
2022/07/20 04:20:52;;;;;;;6.63;3.05;;;24.40;99.90;;;;;;5035405;28;20049;-84
2022/07/20 04:23:19;;;;;;;8.07;3.60;;;24.40;99.90;;;;;;5039597;28;20045;-83
2022/07/20 04:25:45;;;;;;;9.13;3.70;;;24.50;99.90;;;;;;5042809;28;20057;-83
2022/07/20 04:28:12;;;;;;;5.55;3.40;;;24.50;99.90;;;;;;5040808;28;20045;-83
2022/07/20 04:30:39;;;;;;;5.45;3.38;;;24.60;99.90;;;;;;5041451;28;20041;-84
2022/07/20 04:33:06;;;;;;;5.90;3.10;;;24.70;99.90;;;;;;5040845;28;20419;-83
2022/07/20 04:35:33;;;;;;;8.50;3.47;;;24.70;99.90;;;;;;5040240;28;20084;-83
2022/07/20 04:37:59;;;;;;;7.32;3.42;;;24.80;99.90;;;;;;5041423;28;20057;-84
2022/07/20 04:40:26;;;;;;;6.55;3.50;;;24.80;99.90;;;;;;5044270;28;20049;-83
2022/07/20 04:43:01;;;;;;;7.15;3.00;;;24.90;99.90;;;;;;5044011;28;20034;-84
2022/07/20 04:45:28;;;;;;;11.23;4.50;;;25.00;99.90;;;;;;5043577;28;20438;-84
2022/07/20 04:47:56;;;;;;;10.70;4.13;;;25.00;99.90;;;;;;5046741;28;20056;-82
2022/07/20 04:50:23;;;;;;;10.88;3.53;;;25.10;99.90;;;;;;5041419;28;20423;-83
2022/07/20 04:52:50;;;;;;;12.88;4.32;;;25.20;99.90;;;;;;5040276;28;20110;-83
2022/07/20 04:55:16;;;;;;;12.38;3.88;;;25.30;99.90;;;;;;5040408;28;20064;-84
2022/07/20 04:57:43;;;;;;;9.05;3.83;;;25.30;99.90;;;;;;5039451;28;20057;-82
2022/07/20 05:00:11;;;;;;;7.93;3.90;;;25.50;99.90;;;;;;5038777;28;20057;-83
2022/07/20 05:02:38;;;;;;;4.50;3.15;;;25.50;99.90;;;;;;5044353;28;20056;-84
2022/07/20 05:05:05;;;;;;;6.78;3.53;;;25.70;99.90;;;;;;5038166;28;20487;-83
2022/07/20 05:07:33;;;;;;;5.55;3.38;;;25.80;99.90;;;;;;5040712;28;20045;-82
2022/07/20 05:10:00;;;;;;;6.68;3.70;;;26.00;99.90;;;;;;5036778;28;20053;-83
2022/07/20 05:12:27;;;;;;;3.88;3.50;;;26.10;99.90;;;;;;5041904;28;20488;-83
2022/07/20 05:14:53;;;;;;;8.95;3.45;;;26.20;99.90;;;;;;5037529;28;20060;-82
2022/07/20 05:17:20;;;;;;;4.30;3.47;;;26.40;99.90;;;;;;5038487;28;20056;-83
2022/07/20 05:19:47;;;;;;;5.50;3.47;;;26.40;99.90;;;;;;5036377;28;20054;-82
2022/07/20 05:22:15;;;;;;;7.35;3.63;;;26.60;99.90;;;;;;5043543;28;20064;-84
2022/07/20 05:24:41;;;;;;;6.47;3.22;;;26.60;99.90;;;;;;5039540;28;20463;-84
2022/07/20 05:27:08;;;;;;;8.95;3.70;;;26.70;99.90;;;;;;5040634;28;20073;-84
2022/07/20 05:29:35;;;;;;;4.38;3.75;;;26.80;99.90;;;;;;5038590;28;20042;-82
2022/07/20 05:32:02;;;;;;;5.20;3.53;;;26.90;99.90;;;;;;5037974;28;20052;-83
2022/07/20 05:34:28;;;;;;;7.53;3.50;;;27.00;99.90;;;;;;5038608;28;20060;-83
2022/07/20 05:36:55;;;;;;;7.13;3.58;;;27.20;99.90;;;;;;5049575;28;20050;-84
2022/07/20 05:39:22;;;;;;;4.25;3.53;;;27.30;99.90;;;;;;5042530;28;20053;-82
2022/07/20 05:41:48;;;;;;;4.00;3.60;;;27.40;99.90;;;;;;5037510;28;20060;-85
2022/07/20 05:44:15;;;;;;;10.07;3.65;;;27.50;99.90;;;;;;5036809;28;20470;-84
2022/07/20 05:46:42;;;;;;;6.50;3.78;;;27.60;99.90;;;;;;5035833;28;20132;-82
2022/07/20 05:49:09;;;;;;;6.80;3.80;;;27.60;99.90;;;;;;5036379;28;20065;-82
2022/07/20 05:51:36;;;;;;;6.80;3.33;;;27.70;99.90;;;;;;5041075;28;20505;-81
2022/07/20 05:54:03;;;;;;;7.07;3.70;;;27.70;99.90;;;;;;5032876;28;20053;-82
2022/07/20 05:56:30;;;;;;;5.03;3.90;;;27.80;99.90;;;;;;5034784;28;20057;-83
2022/07/20 05:58:57;;;;;;;6.20;3.20;;;27.80;99.90;;;;;;5037530;28;20149;-81
2022/07/20 06:01:24;;;;;;;4.63;3.15;;;27.80;99.90;;;;;;5040054;28;20050;-82
2022/07/20 06:03:51;;;;;;;7.57;3.92;;;27.80;99.90;;;;;;5043375;28;20050;-82
2022/07/20 06:06:17;;;;;;;7.18;3.53;;;27.80;99.90;;;;;;5040636;28;20101;-82
2022/07/20 06:08:44;;;;;;;7.85;3.47;;;27.80;99.90;;;;;;5038095;28;20108;-82
2022/07/20 06:11:32;;;;;;;6.07;3.50;;;27.90;99.90;;;;;;5036791;28;20038;-81
2022/07/20 06:13:59;;;;;;;4.15;3.22;;;27.90;99.90;;;;;;5038290;28;20053;-82
2022/07/20 06:16:26;;;;;;;5.28;3.58;;;27.90;99.90;;;;;;5037479;28;20392;-82
2022/07/20 06:18:53;;;;;;;4.40;3.97;;;27.90;99.90;;;;;;5034432;28;20535;-81
2022/07/20 06:21:20;;;;;;;7.18;3.63;;;27.90;99.90;;;;;;5044613;28;20046;-81
2022/07/20 06:23:46;;;;;;;6.80;3.58;;;27.90;99.90;;;;;;5037843;28;20443;-82
2022/07/20 06:26:13;;;;;;;4.18;3.55;;;27.90;99.90;;;;;;5037397;28;20539;-83
2022/07/20 06:28:40;;;;;;;5.00;4.10;;;27.90;99.90;;;;;;5036206;28;20092;-81
2022/07/20 06:31:07;;;;;;;6.80;4.00;;;27.90;99.90;;;;;;5043354;28;20488;-83
2022/07/20 06:33:34;;;;;;;4.65;4.00;;;27.90;99.90;;;;;;5045530;28;20045;-82
2022/07/20 06:36:01;;;;;;;4.75;3.67;;;27.90;99.90;;;;;;5038882;28;20085;-82
2022/07/20 06:38:27;;;;;;;10.05;4.22;;;27.90;99.90;;;;;;5035713;28;20077;-82
2022/07/20 06:40:54;;;;;;;6.45;4.57;;;27.90;99.90;;;;;;5027749;28;20080;-82
2022/07/20 06:43:23;;;;;;;7.60;4.00;;;27.90;99.90;;;;;;5041260;28;20049;-82
2022/07/20 06:45:50;;;;;;;5.80;4.00;;;28.00;99.90;;;;;;5044269;28;20057;-83
2022/07/20 06:48:16;;;;;;;5.82;5.32;;;28.00;99.90;;;;;;5042806;28;20046;-82
2022/07/20 06:50:43;;;;;;;8.60;5.38;;;28.00;99.90;;;;;;5041806;28;20076;-81
2022/07/20 06:53:10;;;;;;;8.10;5.32;;;28.00;99.90;;;;;;5039421;28;20050;-80
2022/07/20 06:55:37;;;;;;;8.40;5.43;;;28.00;99.90;;;;;;5043791;28;20053;-82
2022/07/20 06:58:04;;;;;;;12.15;5.50;;;28.00;99.90;;;;;;5040942;28;20064;-81
2022/07/20 07:00:31;;;;;;;6.93;5.55;;;28.00;99.90;;;;;;5037611;28;20056;-81
2022/07/20 07:02:57;;;;;;;9.68;6.38;;;28.00;99.90;;;;;;5040892;28;20073;-80
2022/07/20 07:05:24;;;;;;;6.22;5.65;;;28.00;99.90;;;;;;5032267;28;20109;-80
2022/07/20 07:07:51;;;;;;;9.48;6.47;;;28.00;99.90;;;;;;5031769;28;20081;-80
2022/07/20 07:10:18;;;;;;;8.77;6.78;;;28.10;99.90;;;;;;5046288;28;20046;-80
2022/07/20 07:12:45;;;;;;;9.52;6.60;;;28.10;99.90;;;;;;5036171;28;20072;-79
2022/07/20 07:15:12;;;;;;;8.57;7.40;;;28.20;99.90;;;;;;5039199;28;20050;-79
2022/07/20 07:17:38;;;;;;;14.55;8.23;;;28.20;99.90;;;;;;5039008;28;20050;-79
2022/07/20 07:20:06;;;;;;;18.33;8.45;;;28.30;99.90;;;;;;5038500;28;20103;-80
2022/07/20 07:22:34;;;;;;;13.60;8.27;;;28.30;99.90;;;;;;5037835;28;20052;-80
2022/07/20 07:25:01;;;;;;;10.68;8.52;;;28.40;99.90;;;;;;5038468;28;20077;-80
2022/07/20 07:27:28;;;;;;;11.35;9.30;;;28.40;99.90;;;;;;5037267;28;20479;-79
2022/07/20 07:29:54;;;;;;;11.45;8.77;;;28.50;99.90;;;;;;5031672;28;20073;-80
2022/07/20 07:32:21;;;;;;;17.33;9.45;;;28.60;99.90;;;;;;5034651;28;20572;-80
2022/07/20 07:34:48;;;;;;;15.65;8.88;;;28.70;99.90;;;;;;5038141;28;20077;-79
2022/07/20 07:37:18;;;;;;;13.80;9.57;;;28.80;99.90;;;;;;5036631;28;20046;-79
2022/07/20 07:39:44;;;;;;;14.48;10.27;;;28.90;99.90;;;;;;5035350;28;20115;-81
2022/07/20 07:42:11;;;;;;;14.65;10.48;;;28.90;99.90;;;;;;5038214;28;20412;-80
2022/07/20 07:44:38;;;;;;;17.35;11.80;;;29.00;99.90;;;;;;5039431;28;20076;-80
2022/07/20 07:47:05;;;;;;;18.35;11.18;;;29.00;99.90;;;;;;5038872;28;20045;-80
2022/07/20 07:49:31;;;;;;;16.27;12.13;;;29.00;99.90;;;;;;5036101;28;20053;-80
2022/07/20 07:51:58;;;;;;;18.13;12.23;;;29.10;99.90;;;;;;5036060;28;20454;-79
2022/07/20 07:54:25;;;;;;;16.05;11.40;;;29.10;99.90;;;;;;5036660;28;20167;-80
2022/07/20 07:56:52;;;;;;;23.67;12.45;;;29.10;99.90;;;;;;5035921;28;20115;-80
2022/07/20 07:59:18;;;;;;;22.58;13.95;;;29.10;99.90;;;;;;5037365;28;20046;-80
2022/07/20 08:01:58;;;;;;;;;;;29.10;99.90;;;;;;5037795;28;20045;-81
2022/07/20 08:04:25;;;;;;;22.02;13.77;;;29.10;99.90;;;;;;5040957;28;19974;-81
2022/07/20 08:06:52;;;;;;;21.42;13.90;;;29.10;99.90;;;;;;5040436;28;20140;-81
2022/07/20 08:09:19;;;;;;;19.35;12.38;;;29.10;99.90;;;;;;5034321;28;20087;-81
2022/07/20 08:11:46;;;;;;;18.00;11.20;;;29.20;99.90;;;;;;5035392;28;20117;-80
2022/07/20 08:14:13;;;;;;;19.30;13.40;;;29.30;99.90;;;;;;5033127;28;20045;-82
2022/07/20 08:16:40;;;;;;;21.02;15.05;;;29.30;99.90;;;;;;5038117;28;20056;-82
2022/07/20 08:19:06;;;;;;;18.40;14.93;;;29.30;99.90;;;;;;5035240;28;20045;-81
2022/07/20 08:21:33;;;;;;;22.35;15.65;;;29.20;99.90;;;;;;5034071;28;20073;-81
2022/07/20 08:24:05;;;;;;;19.38;15.40;;;29.30;99.90;;;;;;5034735;28;20408;-81
2022/07/20 08:26:34;;;;;;;21.38;15.48;;;29.30;99.90;;;;;;5032316;28;20141;-82
2022/07/20 08:29:01;;;;;;;19.20;15.35;;;29.40;99.90;;;;;;5030971;28;20085;-81
2022/07/20 08:31:35;;;;;;;25.40;14.77;;;29.50;99.90;;;;;;5027982;28;20056;-81
2022/07/20 08:34:02;;;;;;;23.73;15.00;;;29.50;99.90;;;;;;5034535;28;20048;-81
2022/07/20 08:36:29;;;;;;;22.17;15.32;;;29.60;99.90;;;;;;5036228;28;20503;-82
2022/07/20 08:38:55;;;;;;;21.75;15.73;;;29.80;99.90;;;;;;5031403;28;20049;-81
2022/07/20 08:41:25;;;;;;;18.45;14.27;;;29.90;99.90;;;;;;5029864;28;20046;-81
2022/07/20 08:43:51;;;;;;;21.67;16.10;;;29.90;99.90;;;;;;5028038;28;20049;-81
2022/07/20 08:46:22;;;;;;;22.98;16.50;;;29.90;99.90;;;;;;5041535;28;20092;-81
2022/07/20 08:48:49;;;;;;;22.25;16.10;;;29.80;99.90;;;;;;5027250;28;20106;-81
2022/07/20 08:51:16;;;;;;;31.38;18.38;;;29.70;99.90;;;;;;5038302;28;20042;-80
2022/07/20 08:53:43;;;;;;;23.48;16.83;;;29.60;99.90;;;;;;5036200;28;20076;-81
2022/07/20 08:56:11;;;;;;;19.92;16.42;;;29.60;99.90;;;;;;5031709;28;20085;-82
2022/07/20 08:58:37;;;;;;;24.65;16.35;;;29.50;99.90;;;;;;5029987;28;20050;-82
2022/07/20 09:01:05;;;;;;;23.52;16.33;;;29.50;99.90;;;;;;5028207;28;20072;-81
2022/07/20 09:03:32;;;;;;;20.42;16.38;;;29.50;99.90;;;;;;5029027;28;20133;-81
2022/07/20 09:06:05;;;;;;;22.52;15.38;;;29.50;99.90;;;;;;5030987;28;20543;-80
2022/07/20 09:08:32;;;;;;;21.80;15.65;;;29.60;99.90;;;;;;5030710;28;20104;-80
2022/07/20 09:11:01;;;;;;;18.25;14.63;;;29.70;99.90;;;;;;5038452;28;20104;-82
2022/07/20 09:13:31;;;;;;;22.30;15.20;;;29.70;99.90;;;;;;5034642;28;20056;-81
2022/07/20 09:15:59;;;;;;;17.55;15.30;;;29.80;99.90;;;;;;5031751;28;20054;-83
2022/07/20 09:18:29;;;;;;;18.23;15.25;;;29.90;99.90;;;;;;5035417;28;20053;-81
2022/07/20 09:21:00;;;;;;;19.95;15.10;;;29.90;99.90;;;;;;5033688;28;20104;-81
2022/07/20 09:23:48;;;;;;;19.10;15.20;;;29.90;99.90;;;;;;5032529;28;20054;-81
2022/07/20 09:26:16;;;;;;;21.40;14.27;;;30.00;99.90;;;;;;5040426;28;20045;-80
2022/07/20 09:28:45;;;;;;;19.23;15.05;;;30.00;99.90;;;;;;5035731;28;20075;-81
2022/07/20 09:31:20;;;;;;;23.50;15.07;;;30.10;99.90;;;;;;5033115;28;20113;-81
2022/07/20 09:33:52;;;;;;;22.10;15.48;;;30.20;99.90;;;;;;5038087;28;20057;-79
2022/07/20 09:36:23;;;;;;;21.10;15.73;;;30.30;99.90;;;;;;5034035;28;20474;-80
2022/07/20 09:38:50;;;;;;;23.13;15.60;;;30.40;99.90;;;;;;5042424;28;20049;-82
2022/07/20 09:41:25;;;;;;;21.40;15.30;;;30.40;99.90;;;;;;5035805;28;20057;-80
2022/07/20 09:43:52;;;;;;;21.02;14.95;;;30.50;99.90;;;;;;5039227;28;20057;-83
2022/07/20 09:46:22;;;;;;;18.23;15.38;;;30.50;99.90;;;;;;5037152;28;20188;-81
2022/07/20 09:48:54;;;;;;;22.60;14.95;;;30.50;99.90;;;;;;5041177;28;20076;-83
2022/07/20 09:51:31;;;;;;;21.25;14.95;;;30.40;99.90;;;;;;5047437;28;20054;-83
2022/07/20 09:54:03;;;;;;;20.98;15.30;;;30.30;99.90;;;;;;5043469;28;20049;-83
2022/07/20 09:56:31;;;;;;;20.70;15.00;;;30.20;99.90;;;;;;5048683;28;20054;-83
2022/07/20 09:58:59;;;;;;;21.75;15.82;;;30.20;99.90;;;;;;5042367;28;20050;-83
2022/07/20 10:01:28;;;;;;;23.55;15.10;;;30.20;99.90;;;;;;5048513;28;20049;-82
2022/07/20 10:04:01;;;;;;;17.13;15.43;;;30.30;99.90;;;;;;5040999;28;20084;-82
2022/07/20 10:06:28;;;;;;;19.02;15.00;;;30.40;99.90;;;;;;5045074;28;20042;-83
2022/07/20 10:09:00;;;;;;;19.08;14.75;;;30.40;99.90;;;;;;5040500;28;20050;-82
2022/07/20 10:11:27;;;;;;;20.25;13.95;;;30.50;99.90;;;;;;5044146;28;20335;-83
2022/07/20 10:13:56;;;;;;;17.88;13.48;;;30.60;99.90;;;;;;5041852;28;20068;-82
2022/07/20 10:16:39;;;;;;;20.30;14.60;;;30.70;99.90;;;;;;5046471;28;20054;-83
2022/07/20 10:19:07;;;;;;;17.13;13.60;;;30.70;99.90;;;;;;5037931;28;20050;-83
2022/07/20 10:21:37;;;;;;;18.30;13.70;;;30.70;99.90;;;;;;5043451;28;20676;-82
2022/07/20 10:24:22;;;;;;;17.55;15.68;;;30.60;99.90;;;;;;5041982;28;20060;-82
2022/07/20 10:27:03;;;;;;;24.92;15.93;;;30.60;99.90;;;;;;5042011;28;20052;-81
2022/07/20 10:29:33;;;;;;;23.23;14.13;;;30.50;99.90;;;;;;5059855;22;20084;-82
2022/07/20 10:32:25;;;;;;;20.90;13.43;;;30.30;99.90;;;;;;5032042;28;20109;-80
2022/07/20 10:34:56;;;;;;;14.98;13.30;;;30.00;99.90;;;;;;5034426;28;20076;-81
2022/07/20 10:37:43;;;;;;;17.92;12.63;;;29.70;99.90;;;;;;5029359;28;20049;-82
2022/07/20 10:40:21;;;;;;;20.23;12.82;;;29.60;99.90;;;;;;5033065;28;20048;-81
2022/07/20 10:42:51;;;;;;;17.10;13.07;;;29.40;99.90;;;;;;5032819;28;20049;-80
2022/07/20 10:45:20;;;;;;;19.35;13.68;;;29.10;99.90;;;;;;5028623;28;20049;-80
2022/07/20 10:47:49;;;;;;;17.48;13.27;;;28.80;99.90;;;;;;5027913;28;20073;-81
2022/07/20 10:50:18;;;;;;;17.58;12.88;;;28.70;99.90;;;;;;5035352;28;20046;-81
2022/07/20 10:52:46;;;;;;;21.42;13.13;;;28.60;99.90;;;;;;5044833;28;20136;-84
2022/07/20 10:55:35;;;;;;;17.48;14.52;;;28.50;99.90;;;;;;5034974;28;20045;-79
2022/07/20 10:58:06;;;;;;;24.45;14.65;;;28.40;99.90;;;;;;5029584;28;20507;-80
2022/07/20 11:00:34;;;;;;;21.88;14.68;;;28.20;99.90;;;;;;5031679;28;20385;-80
2022/07/20 11:03:03;;;;;;;23.83;15.20;;;28.20;99.90;;;;;;5032956;28;20458;-77
2022/07/20 11:05:30;;;;;;;21.23;15.65;;;27.90;99.90;;;;;;5031216;28;20245;-78
2022/07/20 11:08:04;;;;;;;19.02;14.95;;;27.90;99.90;;;;;;5026303;28;20417;-80
2022/07/20 11:10:31;;;;;;;22.42;16.30;;;27.90;99.90;;;;;;5030951;28;20050;-80
2022/07/20 11:13:00;;;;;;;20.80;15.55;;;27.90;99.90;;;;;;5027703;28;20412;-80
2022/07/20 11:15:45;;;;;;;22.50;15.18;;;27.90;99.90;;;;;;5032175;28;20069;-80
2022/07/20 11:18:15;;;;;;;18.85;15.30;;;28.00;99.90;;;;;;5032443;28;20072;-80
2022/07/20 11:20:54;;;;;;;20.05;14.73;;;28.10;99.90;;;;;;5032789;28;20088;-80
2022/07/20 11:23:23;;;;;;;22.58;15.18;;;28.40;99.90;;;;;;5032938;28;20140;-79
2022/07/20 11:25:52;;;;;;;;;;;28.60;99.90;;;;;;5034340;28;20447;-80
2022/07/20 11:28:25;;;;;;;20.05;14.70;;;28.90;99.90;;;;;;5034153;28;19964;-83
2022/07/20 11:30:53;;;;;;;15.90;14.20;;;29.20;99.90;;;;;;5034708;28;20073;-81
2022/07/20 11:33:27;;;;;;;19.80;13.85;;;29.40;99.90;;;;;;5035228;28;20046;-80
2022/07/20 11:36:00;;;;;;;15.02;13.30;;;29.60;99.90;;;;;;5038238;28;20073;-80
2022/07/20 11:38:47;;;;;;;19.23;15.45;;;29.80;99.90;;;;;;5035649;28;20059;-79
2022/07/20 11:41:31;;;;;;;19.27;15.77;;;29.90;99.90;;;;;;5035464;28;20077;-77
2022/07/20 11:44:00;;;;;;;19.65;17.48;;;29.90;99.90;;;;;;5035036;28;20108;-80
2022/07/20 11:46:28;;;;;;;20.33;16.88;;;29.90;99.90;;;;;;5035647;28;20037;-86
2022/07/20 11:48:59;;;;;;;19.73;16.38;;;30.00;99.90;;;;;;5040830;28;20042;-81
2022/07/20 11:52:03;;;;;;;21.15;17.58;;;30.00;99.90;;;;;;5026694;28;20530;-82
2022/07/20 11:54:35;;;;;;;22.60;17.35;;;29.90;99.90;;;;;;5032261;28;20073;-80
2022/07/20 11:57:03;;;;;;;25.55;17.92;;;29.90;99.90;;;;;;5041626;28;20053;-83
2022/07/20 11:59:30;;;;;;;24.70;17.63;;;30.00;99.90;;;;;;5028141;28;20054;-81
2022/07/20 12:01:59;;;;;;;21.80;17.02;;;30.00;99.90;;;;;;5031394;28;20113;-79
2022/07/20 12:04:33;;;;;;;23.10;17.17;;;30.00;99.90;;;;;;5029266;28;20049;-80
2022/07/20 12:07:00;;;;;;;22.17;17.48;;;30.00;99.90;;;;;;5032873;28;20581;-81
2022/07/20 12:09:35;;;;;;;22.77;16.77;;;30.10;99.90;;;;;;5030263;28;20088;-80
2022/07/20 12:12:07;;;;;;;19.85;17.35;;;30.10;99.90;;;;;;5031188;28;20415;-78
2022/07/20 12:14:41;;;;;;;20.35;16.98;;;30.10;99.90;;;;;;5025373;28;20119;-79
2022/07/20 12:17:30;;;;;;;19.60;16.77;;;30.20;99.90;;;;;;5031372;28;20052;-78
2022/07/20 12:19:59;;;;;;;21.77;16.17;;;30.20;99.90;;;;;;5025221;28;20056;-81
2022/07/20 12:22:32;;;;;;;19.08;16.17;;;30.20;99.90;;;;;;5025919;28;20103;-77
2022/07/20 12:25:05;;;;;;;19.48;16.65;;;30.30;99.90;;;;;;5027352;28;20046;-79
2022/07/20 12:27:36;;;;;;;24.70;15.35;;;30.30;99.90;;;;;;5031081;28;20554;-81
2022/07/20 12:30:26;;;;;;;23.13;16.08;;;30.40;99.90;;;;;;5025847;28;20054;-78
2022/07/20 12:33:11;;;;;;;23.45;15.07;;;30.40;99.90;;;;;;5037809;28;20096;-77
2022/07/20 12:35:40;;;;;;;18.30;15.20;;;30.50;99.90;;;;;;5031075;28;20041;-80
2022/07/20 12:38:07;;;;;;;18.93;14.93;;;30.50;99.90;;;;;;5023230;28;20037;-79
2022/07/20 12:40:36;;;;;;;27.08;15.48;;;30.60;99.90;;;;;;5029131;28;20422;-81
2022/07/20 12:43:06;;;;;;;21.20;15.00;;;30.60;99.90;;;;;;5029801;28;20049;-78
2022/07/20 12:45:33;;;;;;;21.83;14.97;;;30.70;99.90;;;;;;5035772;28;20073;-80
2022/07/20 12:47:59;;;;;;;18.85;14.48;;;30.70;99.90;;;;;;5036001;28;20292;-80
2022/07/20 12:50:34;;;;;;;22.15;14.65;;;30.80;99.90;;;;;;5036388;28;20083;-80